メインページ
METAR-TAF:

METAR-TAF

空港 :

チュニス・カルタゴ国際空港

チュニス, チュニジア

緯度: 36-50N, 経度: 010-14E, 海抜: 3m

現時点の気象観測

当レポートは15分前の09:00(UTC)に作成
変向風 5kt
気温 28°C
湿度 48%
気圧 1018 hPa
視程10km以上
1,500メートル以下は雲なし、積乱雲なし

METAR: DTTA 200900Z VRB05KT CAVOK 28/16 Q1018 NOSIG

時間: 10:15 (09:15 UTC)

予報

当レポートは3時間35分前の05:40(UTC)に作成
予報は20日の 06時(UTC)から 21日の 06時(UTC)まで有効
西/北西の風 10kt
視程10km以上
1,500メートル以下は雲なし、積乱雲なし
確率 30% :
20日の 14時(UTC)から 20日の 18時(UTC)まで一時的に
視程: 4000m
高度2300ftの雲はほとんどない, 積乱雲.
激しい雷雨, 小雨

TAF: DTTA 200540Z 2006/2106 29010KT CAVOK PROB30 TEMPO 2014/2018 4000 -TSRA FEW023CB

4,000以上の空港の気象観測と天気予報(METAR報とTAF報)

利用可能な観測所は地図上に黄色い丸と赤い丸で示す。

丸の上にカーソルを重ねると観測所名を参照できる。

次にクリックすると気象観測と天気予報を参照できる。

マップの切り替え:黒色「×」印の緑ボタンをクリックして拡大、「-」印の緑ボタンをクリックして縮小、緑色の三角印をクリックして隣りの地図に切り替え


METAR-TAF: